sensor_id;sensor_type;location;lat;lon;timestamp;pressure;altitude;pressure_sealevel;temperature;humidity
76994;BME280;66749;47.406;18.822;2023-07-16T00:00:20;100211.91;;;21.30;78.81
76994;BME280;66749;47.406;18.822;2023-07-16T00:00:53;100218.22;;;21.29;77.84
76994;BME280;66749;47.406;18.822;2023-07-16T00:01:24;100213.22;;;21.26;78.31
76994;BME280;66749;47.406;18.822;2023-07-16T00:01:56;100211.56;;;21.25;79.04
76994;BME280;66749;47.406;18.822;2023-07-16T00:02:28;100210.56;;;21.26;78.19
76994;BME280;66749;47.406;18.822;2023-07-16T00:03:00;100211.25;;;21.28;78.49
76994;BME280;66749;47.406;18.822;2023-07-16T00:03:32;100208.75;;;21.26;78.34
76994;BME280;66749;47.406;18.822;2023-07-16T00:04:04;100204.25;;;21.27;78.35
76994;BME280;66749;47.406;18.822;2023-07-16T00:04:36;100214.22;;;21.25;78.29
76994;BME280;66749;47.406;18.822;2023-07-16T00:05:08;100207.06;;;21.25;78.09
76994;BME280;66749;47.406;18.822;2023-07-16T00:05:40;100204.88;;;21.21;78.83
76994;BME280;66749;47.406;18.822;2023-07-16T00:06:12;100202.91;;;21.23;78.71
76994;BME280;66749;47.406;18.822;2023-07-16T00:06:45;100200.41;;;21.21;78.07
76994;BME280;66749;47.406;18.822;2023-07-16T00:07:17;100202.06;;;21.22;78.52
76994;BME280;66749;47.406;18.822;2023-07-16T00:07:49;100207.25;;;21.24;78.42
76994;BME280;66749;47.406;18.822;2023-07-16T00:08:22;100201.56;;;21.19;78.05
76994;BME280;66749;47.406;18.822;2023-07-16T00:08:53;100203.22;;;21.20;78.67
76994;BME280;66749;47.406;18.822;2023-07-16T00:09:25;100199.56;;;21.21;78.09
76994;BME280;66749;47.406;18.822;2023-07-16T00:09:57;100201.56;;;21.19;78.81
76994;BME280;66749;47.406;18.822;2023-07-16T00:10:29;100198.91;;;21.19;78.16
76994;BME280;66749;47.406;18.822;2023-07-16T00:11:03;100197.56;;;21.15;78.91
76994;BME280;66749;47.406;18.822;2023-07-16T00:11:35;100197.72;;;21.13;79.15
76994;BME280;66749;47.406;18.822;2023-07-16T00:12:07;100198.72;;;21.12;78.43
76994;BME280;66749;47.406;18.822;2023-07-16T00:12:40;100203.19;;;21.12;78.64
76994;BME280;66749;47.406;18.822;2023-07-16T00:13:12;100198.06;;;21.10;78.81
76994;BME280;66749;47.406;18.822;2023-07-16T00:13:43;100198.06;;;21.10;78.84
76994;BME280;66749;47.406;18.822;2023-07-16T00:14:18;100202.38;;;21.11;78.64
76994;BME280;66749;47.406;18.822;2023-07-16T00:14:50;100198.88;;;21.11;78.49
76994;BME280;66749;47.406;18.822;2023-07-16T00:15:22;100200.53;;;21.12;79.00
76994;BME280;66749;47.406;18.822;2023-07-16T00:15:54;100200.53;;;21.12;79.10
76994;BME280;66749;47.406;18.822;2023-07-16T00:16:26;100199.03;;;21.09;78.40
76994;BME280;66749;47.406;18.822;2023-07-16T00:16:58;100199.19;;;21.08;79.02
76994;BME280;66749;47.406;18.822;2023-07-16T00:17:30;100203.16;;;21.03;79.19
76994;BME280;66749;47.406;18.822;2023-07-16T00:18:01;100202.81;;;21.06;78.24
76994;BME280;66749;47.406;18.822;2023-07-16T00:18:33;100202.16;;;21.04;78.77
76994;BME280;66749;47.406;18.822;2023-07-16T00:19:05;100202.31;;;21.03;79.03
76994;BME280;66749;47.406;18.822;2023-07-16T00:19:37;100200.50;;;21.03;78.37
76994;BME280;66749;47.406;18.822;2023-07-16T00:20:09;100196.47;;;20.99;78.98
76994;BME280;66749;47.406;18.822;2023-07-16T00:20:42;100196.47;;;20.99;79.31
76994;BME280;66749;47.406;18.822;2023-07-16T00:21:13;100196.81;;;20.96;79.14
76994;BME280;66749;47.406;18.822;2023-07-16T00:21:45;100198.81;;;20.94;78.79
76994;BME280;66749;47.406;18.822;2023-07-16T00:22:17;100197.81;;;20.95;79.18
76994;BME280;66749;47.406;18.822;2023-07-16T00:22:50;100190.50;;;20.97;78.47
76994;BME280;66749;47.406;18.822;2023-07-16T00:23:22;100197.47;;;20.98;78.40
76994;BME280;66749;47.406;18.822;2023-07-16T00:23:54;100195.50;;;21.00;78.61
76994;BME280;66749;47.406;18.822;2023-07-16T00:24:27;100196.97;;;20.95;79.46
76994;BME280;66749;47.406;18.822;2023-07-16T00:24:59;100201.13;;;20.97;79.13
76994;BME280;66749;47.406;18.822;2023-07-16T00:25:31;100190.69;;;20.96;78.59
76994;BME280;66749;47.406;18.822;2023-07-16T00:26:02;100192.50;;;20.95;78.52
76994;BME280;66749;47.406;18.822;2023-07-16T00:26:34;100194.16;;;20.96;79.15
76994;BME280;66749;47.406;18.822;2023-07-16T00:27:06;100199.31;;;20.98;78.97
76994;BME280;66749;47.406;18.822;2023-07-16T00:27:38;100193.50;;;20.94;78.33
76994;BME280;66749;47.406;18.822;2023-07-16T00:28:10;100195.16;;;20.95;78.66
76994;BME280;66749;47.406;18.822;2023-07-16T00:28:43;100198.81;;;20.94;79.02
76994;BME280;66749;47.406;18.822;2023-07-16T00:29:15;100198.81;;;20.94;78.41
76994;BME280;66749;47.406;18.822;2023-07-16T00:29:47;100196.16;;;20.94;78.82
76994;BME280;66749;47.406;18.822;2023-07-16T00:30:19;100195.44;;;20.92;78.47
76994;BME280;66749;47.406;18.822;2023-07-16T00:30:51;100195.44;;;20.92;78.99
76994;BME280;66749;47.406;18.822;2023-07-16T00:31:23;100197.44;;;20.90;78.73
76994;BME280;66749;47.406;18.822;2023-07-16T00:31:54;100198.44;;;20.89;78.74
76994;BME280;66749;47.406;18.822;2023-07-16T00:32:26;100199.09;;;20.91;78.78
76994;BME280;66749;47.406;18.822;2023-07-16T00:32:58;100188.81;;;20.88;79.08
76994;BME280;66749;47.406;18.822;2023-07-16T00:33:30;100196.59;;;20.90;79.04
76994;BME280;66749;47.406;18.822;2023-07-16T00:34:02;100189.47;;;20.90;79.41
76994;BME280;66749;47.406;18.822;2023-07-16T00:34:34;100192.13;;;20.90;79.08
76994;BME280;66749;47.406;18.822;2023-07-16T00:35:06;100187.50;;;20.92;78.87
76994;BME280;66749;47.406;18.822;2023-07-16T00:35:38;100192.66;;;20.94;79.44
76994;BME280;66749;47.406;18.822;2023-07-16T00:36:10;100192.13;;;20.90;79.15
76994;BME280;66749;47.406;18.822;2023-07-16T00:36:42;100193.94;;;20.90;79.32
76994;BME280;66749;47.406;18.822;2023-07-16T00:37:14;100199.09;;;20.91;79.29
76994;BME280;66749;47.406;18.822;2023-07-16T00:37:45;100191.84;;;20.93;79.40
76994;BME280;66749;47.406;18.822;2023-07-16T00:38:18;100192.13;;;20.90;78.85
76994;BME280;66749;47.406;18.822;2023-07-16T00:38:50;100197.75;;;20.87;78.78
76994;BME280;66749;47.406;18.822;2023-07-16T00:39:22;100193.13;;;20.89;79.19
76994;BME280;66749;47.406;18.822;2023-07-16T00:39:54;100198.44;;;20.89;79.47
76994;BME280;66749;47.406;18.822;2023-07-16T00:40:26;100204.72;;;20.88;79.24
76994;BME280;66749;47.406;18.822;2023-07-16T00:40:57;100199.44;;;20.88;78.95
76994;BME280;66749;47.406;18.822;2023-07-16T00:41:29;100191.31;;;20.90;79.33
76994;BME280;66749;47.406;18.822;2023-07-16T00:42:01;100200.41;;;20.87;79.31
76994;BME280;66749;47.406;18.822;2023-07-16T00:42:33;100194.78;;;20.90;79.11
76994;BME280;66749;47.406;18.822;2023-07-16T00:43:05;100202.91;;;20.89;78.91
76994;BME280;66749;47.406;18.822;2023-07-16T00:43:37;100202.06;;;20.88;78.54
76994;BME280;66749;47.406;18.822;2023-07-16T00:44:09;100196.25;;;20.85;78.79
76994;BME280;66749;47.406;18.822;2023-07-16T00:44:41;100191.94;;;20.84;78.71
76994;BME280;66749;47.406;18.822;2023-07-16T00:45:13;100200.03;;;20.82;79.53
76994;BME280;66749;47.406;18.822;2023-07-16T00:45:49;100191.25;;;20.82;79.24
76994;BME280;66749;47.406;18.822;2023-07-16T00:46:21;100193.38;;;20.78;79.13
76994;BME280;66749;47.406;18.822;2023-07-16T00:46:53;100194.38;;;20.77;78.97
76994;BME280;66749;47.406;18.822;2023-07-16T00:47:25;100194.38;;;20.77;78.74
76994;BME280;66749;47.406;18.822;2023-07-16T00:47:57;100195.06;;;20.79;79.34
76994;BME280;66749;47.406;18.822;2023-07-16T00:48:29;100191.72;;;20.77;79.06
76994;BME280;66749;47.406;18.822;2023-07-16T00:49:01;100190.06;;;20.76;79.26
76994;BME280;66749;47.406;18.822;2023-07-16T00:49:34;100192.88;;;20.74;79.22
76994;BME280;66749;47.406;18.822;2023-07-16T00:50:08;100187.56;;;20.74;79.29
76994;BME280;66749;47.406;18.822;2023-07-16T00:50:41;100186.75;;;20.74;78.88
76994;BME280;66749;47.406;18.822;2023-07-16T00:51:13;100191.38;;;20.72;79.74
76994;BME280;66749;47.406;18.822;2023-07-16T00:51:46;100188.56;;;20.73;78.71
76994;BME280;66749;47.406;18.822;2023-07-16T00:52:19;100190.38;;;20.73;79.29
76994;BME280;66749;47.406;18.822;2023-07-16T00:52:52;100181.44;;;20.74;78.55
76994;BME280;66749;47.406;18.822;2023-07-16T00:53:24;100190.06;;;20.76;78.80
76994;BME280;66749;47.406;18.822;2023-07-16T00:53:56;100185.06;;;20.73;78.79
76994;BME280;66749;47.406;18.822;2023-07-16T00:54:29;100180.44;;;20.75;78.88
76994;BME280;66749;47.406;18.822;2023-07-16T00:55:03;100182.59;;;20.71;78.59
76994;BME280;66749;47.406;18.822;2023-07-16T00:55:38;100183.88;;;20.67;79.42
76994;BME280;66749;47.406;18.822;2023-07-16T00:56:15;100177.75;;;20.67;78.79
76994;BME280;66749;47.406;18.822;2023-07-16T00:56:48;100177.75;;;20.67;78.96
76994;BME280;66749;47.406;18.822;2023-07-16T00:57:20;100173.44;;;20.66;79.76
76994;BME280;66749;47.406;18.822;2023-07-16T00:57:53;100173.44;;;20.66;78.87
76994;BME280;66749;47.406;18.822;2023-07-16T00:58:27;100175.09;;;20.67;78.70
76994;BME280;66749;47.406;18.822;2023-07-16T00:58:59;100177.06;;;20.65;79.50
76994;BME280;66749;47.406;18.822;2023-07-16T00:59:31;100171.78;;;20.65;79.42
76994;BME280;66749;47.406;18.822;2023-07-16T01:00:03;100170.94;;;20.64;78.67
76994;BME280;66749;47.406;18.822;2023-07-16T01:00:37;100178.34;;;20.61;78.74
76994;BME280;66749;47.406;18.822;2023-07-16T01:01:09;100177.53;;;20.60;78.92
76994;BME280;66749;47.406;18.822;2023-07-16T01:01:41;100168.75;;;20.60;79.48
76994;BME280;66749;47.406;18.822;2023-07-16T01:02:13;100174.88;;;20.60;79.41
76994;BME280;66749;47.406;18.822;2023-07-16T01:02:45;100180.50;;;20.57;79.04
76994;BME280;66749;47.406;18.822;2023-07-16T01:03:17;100170.72;;;20.58;78.91
76994;BME280;66749;47.406;18.822;2023-07-16T01:03:49;100179.97;;;20.54;79.66
76994;BME280;66749;47.406;18.822;2023-07-16T01:04:22;100172.72;;;20.56;79.54
76994;BME280;66749;47.406;18.822;2023-07-16T01:04:54;100172.00;;;20.54;79.59
76994;BME280;66749;47.406;18.822;2023-07-16T01:05:31;100173.84;;;20.53;79.16
76994;BME280;66749;47.406;18.822;2023-07-16T01:06:14;100169.34;;;20.54;78.96
76994;BME280;66749;47.406;18.822;2023-07-16T01:06:52;100174.16;;;20.50;79.03
76994;BME280;66749;47.406;18.822;2023-07-16T01:07:27;100169.53;;;20.52;79.52
76994;BME280;66749;47.406;18.822;2023-07-16T01:08:04;100173.31;;;20.49;79.61
76994;BME280;66749;47.406;18.822;2023-07-16T01:08:45;100178.47;;;20.51;79.01
76994;BME280;66749;47.406;18.822;2023-07-16T01:09:20;100175.81;;;20.51;79.06
76994;BME280;66749;47.406;18.822;2023-07-16T01:09:53;100173.31;;;20.49;78.96
76994;BME280;66749;47.406;18.822;2023-07-16T01:10:27;100171.66;;;20.48;79.50
76994;BME280;66749;47.406;18.822;2023-07-16T01:11:00;100174.00;;;20.52;78.80
76994;BME280;66749;47.406;18.822;2023-07-16T01:11:37;100176.97;;;20.48;79.79
76994;BME280;66749;47.406;18.822;2023-07-16T01:12:12;100175.59;;;20.44;79.34
76994;BME280;66749;47.406;18.822;2023-07-16T01:12:45;100175.28;;;20.47;80.00
76994;BME280;66749;47.406;18.822;2023-07-16T01:13:18;100169.16;;;20.47;79.12
76994;BME280;66749;47.406;18.822;2023-07-16T01:13:50;100171.25;;;20.43;79.80
76994;BME280;66749;47.406;18.822;2023-07-16T01:14:23;100170.13;;;20.46;79.36
76994;BME280;66749;47.406;18.822;2023-07-16T01:14:56;100179.38;;;20.42;80.08
76994;BME280;66749;47.406;18.822;2023-07-16T01:15:28;100178.53;;;20.41;79.23
76994;BME280;66749;47.406;18.822;2023-07-16T01:16:00;100178.66;;;20.40;79.29
76994;BME280;66749;47.406;18.822;2023-07-16T01:16:32;100180.38;;;20.41;79.13
76994;BME280;66749;47.406;18.822;2023-07-16T01:17:05;100184.50;;;20.43;79.69
76994;BME280;66749;47.406;18.822;2023-07-16T01:17:38;100185.50;;;20.42;79.91
76994;BME280;66749;47.406;18.822;2023-07-16T01:18:10;100182.31;;;20.39;79.76
76994;BME280;66749;47.406;18.822;2023-07-16T01:18:42;100178.16;;;20.36;79.55
76994;BME280;66749;47.406;18.822;2023-07-16T01:19:14;100179.31;;;20.34;79.70
76994;BME280;66749;47.406;18.822;2023-07-16T01:19:45;100179.31;;;20.34;79.90
76994;BME280;66749;47.406;18.822;2023-07-16T01:20:17;100179.31;;;20.34;79.70
76994;BME280;66749;47.406;18.822;2023-07-16T01:20:49;100179.16;;;20.35;79.85
76994;BME280;66749;47.406;18.822;2023-07-16T01:21:23;100179.09;;;20.27;79.84
76994;BME280;66749;47.406;18.822;2023-07-16T01:23:26;100172.63;;;20.30;80.16
76994;BME280;66749;47.406;18.822;2023-07-16T01:25:05;100180.44;;;20.31;80.02
76994;BME280;66749;47.406;18.822;2023-07-16T01:30:02;100179.75;;;20.29;79.47
76994;BME280;66749;47.406;18.822;2023-07-16T01:30:37;100181.41;;;20.30;79.75
76994;BME280;66749;47.406;18.822;2023-07-16T01:31:11;100178.94;;;20.29;79.68
76994;BME280;66749;47.406;18.822;2023-07-16T01:31:46;100181.41;;;20.30;79.70
76994;BME280;66749;47.406;18.822;2023-07-16T01:32:20;100178.09;;;20.28;79.55
76994;BME280;66749;47.406;18.822;2023-07-16T01:32:54;100180.91;;;20.27;80.11
76994;BME280;66749;47.406;18.822;2023-07-16T01:33:27;100172.81;;;20.28;80.15
76994;BME280;66749;47.406;18.822;2023-07-16T01:33:59;100172.63;;;20.30;79.74
76994;BME280;66749;47.406;18.822;2023-07-16T01:34:34;100172.47;;;20.31;79.71
76994;BME280;66749;47.406;18.822;2023-07-16T01:35:08;100175.44;;;20.28;80.06
76994;BME280;66749;47.406;18.822;2023-07-16T01:35:40;100166.84;;;20.26;79.67
76994;BME280;66749;47.406;18.822;2023-07-16T01:36:14;100172.81;;;20.28;80.18
76994;BME280;66749;47.406;18.822;2023-07-16T01:36:49;100167.50;;;20.28;79.99
76994;BME280;66749;47.406;18.822;2023-07-16T01:37:21;100180.75;;;20.28;79.66
76994;BME280;66749;47.406;18.822;2023-07-16T01:37:53;100170.81;;;20.30;80.25
76994;BME280;66749;47.406;18.822;2023-07-16T01:38:25;100165.53;;;20.30;79.89
76994;BME280;66749;47.406;18.822;2023-07-16T01:38:57;100171.66;;;20.31;79.36
76994;BME280;66749;47.406;18.822;2023-07-16T01:39:30;100173.47;;;20.30;79.70
76994;BME280;66749;47.406;18.822;2023-07-16T01:40:02;100175.44;;;20.28;79.91
76994;BME280;66749;47.406;18.822;2023-07-16T01:40:35;100178.94;;;20.29;80.18
76994;BME280;66749;47.406;18.822;2023-07-16T01:41:07;100169.16;;;20.29;80.05
76994;BME280;66749;47.406;18.822;2023-07-16T01:41:39;100168.16;;;20.30;80.15
76994;BME280;66749;47.406;18.822;2023-07-16T01:42:10;100168.50;;;20.27;80.39
76994;BME280;66749;47.406;18.822;2023-07-16T01:42:44;100172.63;;;20.30;80.24
76994;BME280;66749;47.406;18.822;2023-07-16T01:43:15;100169.84;;;20.31;79.55
76994;BME280;66749;47.406;18.822;2023-07-16T01:43:47;100168.84;;;20.32;79.08
76994;BME280;66749;47.406;18.822;2023-07-16T01:44:19;100161.88;;;20.31;79.25
76994;BME280;66749;47.406;18.822;2023-07-16T01:44:51;100165.69;;;20.29;80.28
76994;BME280;66749;47.406;18.822;2023-07-16T01:45:23;100175.28;;;20.30;79.43
76994;BME280;66749;47.406;18.822;2023-07-16T01:45:55;100170.81;;;20.30;79.98
76994;BME280;66749;47.406;18.822;2023-07-16T01:46:27;100177.13;;;20.29;79.63
76994;BME280;66749;47.406;18.822;2023-07-16T01:47:07;100168.50;;;20.27;80.35
76994;BME280;66749;47.406;18.822;2023-07-16T01:47:50;100167.66;;;20.27;80.33
76994;BME280;66749;47.406;18.822;2023-07-16T01:48:34;100170.16;;;20.28;79.42
76994;BME280;66749;47.406;18.822;2023-07-16T01:49:07;100172.81;;;20.28;79.91
76994;BME280;66749;47.406;18.822;2023-07-16T01:49:39;100174.47;;;20.29;80.28
76994;BME280;66749;47.406;18.822;2023-07-16T01:50:13;100169.47;;;20.26;79.53
76994;BME280;66749;47.406;18.822;2023-07-16T01:50:44;100176.59;;;20.26;80.14
76994;BME280;66749;47.406;18.822;2023-07-16T01:51:16;100175.22;;;20.21;80.08
76994;BME280;66749;47.406;18.822;2023-07-16T01:51:48;100175.38;;;20.20;80.61
76994;BME280;66749;47.406;18.822;2023-07-16T01:52:20;100170.91;;;20.20;79.97
76994;BME280;66749;47.406;18.822;2023-07-16T01:52:52;100165.63;;;20.20;80.75
76994;BME280;66749;47.406;18.822;2023-07-16T01:53:24;100164.63;;;20.21;80.55
76994;BME280;66749;47.406;18.822;2023-07-16T01:53:56;100169.25;;;20.19;80.35
76994;BME280;66749;47.406;18.822;2023-07-16T01:54:27;100165.06;;;20.17;80.26
76994;BME280;66749;47.406;18.822;2023-07-16T01:54:59;100173.72;;;20.19;80.15
76994;BME280;66749;47.406;18.822;2023-07-16T01:55:31;100168.56;;;20.17;79.89
76994;BME280;66749;47.406;18.822;2023-07-16T01:56:03;100170.09;;;20.20;80.40
76994;BME280;66749;47.406;18.822;2023-07-16T01:56:35;100169.09;;;20.21;80.32
76994;BME280;66749;47.406;18.822;2023-07-16T01:57:07;100164.63;;;20.21;80.59
76994;BME280;66749;47.406;18.822;2023-07-16T01:57:39;100162.13;;;20.20;80.73
76994;BME280;66749;47.406;18.822;2023-07-16T01:58:10;100167.44;;;20.20;79.91
76994;BME280;66749;47.406;18.822;2023-07-16T01:58:42;100164.94;;;20.18;80.84
76994;BME280;66749;47.406;18.822;2023-07-16T01:59:14;100168.56;;;20.17;80.17
76994;BME280;66749;47.406;18.822;2023-07-16T01:59:46;100170.25;;;20.18;80.48
76994;BME280;66749;47.406;18.822;2023-07-16T02:00:18;100164.63;;;20.21;79.99
76994;BME280;66749;47.406;18.822;2023-07-16T02:00:50;100172.75;;;20.20;80.63
76994;BME280;66749;47.406;18.822;2023-07-16T02:01:22;100167.72;;;20.17;81.01
76994;BME280;66749;47.406;18.822;2023-07-16T02:01:54;100164.41;;;20.15;80.39
76994;BME280;66749;47.406;18.822;2023-07-16T02:02:26;100169.88;;;20.13;80.21
76994;BME280;66749;47.406;18.822;2023-07-16T02:02:58;100170.84;;;20.12;80.74
76994;BME280;66749;47.406;18.822;2023-07-16T02:03:30;100171.16;;;20.09;80.34
76994;BME280;66749;47.406;18.822;2023-07-16T02:04:02;100171.97;;;20.10;80.68
76994;BME280;66749;47.406;18.822;2023-07-16T02:04:34;100165.00;;;20.09;80.73
76994;BME280;66749;47.406;18.822;2023-07-16T02:05:06;100175.63;;;20.09;80.95
76994;BME280;66749;47.406;18.822;2023-07-16T02:05:38;100167.38;;;20.12;80.73
76994;BME280;66749;47.406;18.822;2023-07-16T02:06:10;100172.69;;;20.12;80.47
76994;BME280;66749;47.406;18.822;2023-07-16T02:06:42;100162.25;;;20.10;80.69
76994;BME280;66749;47.406;18.822;2023-07-16T02:07:13;100164.72;;;20.12;80.91
76994;BME280;66749;47.406;18.822;2023-07-16T02:07:45;100169.31;;;20.10;80.96
76994;BME280;66749;47.406;18.822;2023-07-16T02:08:17;100169.31;;;20.10;80.21
76994;BME280;66749;47.406;18.822;2023-07-16T02:08:52;100167.53;;;20.10;80.84
76994;BME280;66749;47.406;18.822;2023-07-16T02:09:24;100158.44;;;20.13;80.30
76994;BME280;66749;47.406;18.822;2023-07-16T02:09:57;100164.41;;;20.15;79.96
76994;BME280;66749;47.406;18.822;2023-07-16T02:10:28;100159.09;;;20.15;79.89
76994;BME280;66749;47.406;18.822;2023-07-16T02:11:00;100164.41;;;20.15;79.96
76994;BME280;66749;47.406;18.822;2023-07-16T02:11:32;100171.53;;;20.14;79.91
76994;BME280;66749;47.406;18.822;2023-07-16T02:12:04;100167.38;;;20.12;79.95
76994;BME280;66749;47.406;18.822;2023-07-16T02:12:36;100163.75;;;20.13;80.70
76994;BME280;66749;47.406;18.822;2023-07-16T02:13:08;100160.09;;;20.14;80.52
76994;BME280;66749;47.406;18.822;2023-07-16T02:13:40;100158.44;;;20.13;79.90
76994;BME280;66749;47.406;18.822;2023-07-16T02:14:11;100152.16;;;20.14;80.16
76994;BME280;66749;47.406;18.822;2023-07-16T02:14:45;100161.47;;;20.18;80.63
76994;BME280;66749;47.406;18.822;2023-07-16T02:15:17;100160.47;;;20.19;79.76
76994;BME280;66749;47.406;18.822;2023-07-16T02:15:49;100156.16;;;20.18;80.15
76994;BME280;66749;47.406;18.822;2023-07-16T02:16:21;100164.72;;;20.12;80.50
76994;BME280;66749;47.406;18.822;2023-07-16T02:16:53;100163.75;;;20.13;80.54
76994;BME280;66749;47.406;18.822;2023-07-16T02:17:25;100156.78;;;20.12;80.68
76994;BME280;66749;47.406;18.822;2023-07-16T02:17:57;100154.41;;;20.09;79.73
76994;BME280;66749;47.406;18.822;2023-07-16T02:18:29;100162.53;;;20.07;80.71
76994;BME280;66749;47.406;18.822;2023-07-16T02:19:00;100160.03;;;20.06;80.58
76994;BME280;66749;47.406;18.822;2023-07-16T02:19:32;100152.75;;;20.08;80.20
76994;BME280;66749;47.406;18.822;2023-07-16T02:20:05;100158.38;;;20.05;80.60
76994;BME280;66749;47.406;18.822;2023-07-16T02:20:37;100163.34;;;20.08;79.82
76994;BME280;66749;47.406;18.822;2023-07-16T02:21:09;100156.06;;;20.10;80.04
76994;BME280;66749;47.406;18.822;2023-07-16T02:21:41;100160.72;;;20.08;80.35
76994;BME280;66749;47.406;18.822;2023-07-16T02:22:12;100149.44;;;20.06;79.99
76994;BME280;66749;47.406;18.822;2023-07-16T02:22:44;100159.03;;;20.07;79.94
76994;BME280;66749;47.406;18.822;2023-07-16T02:23:16;100154.41;;;20.09;80.62
76994;BME280;66749;47.406;18.822;2023-07-16T02:23:48;100162.53;;;20.07;79.77
76994;BME280;66749;47.406;18.822;2023-07-16T02:24:20;100150.09;;;20.08;80.66
76994;BME280;66749;47.406;18.822;2023-07-16T02:24:52;100155.72;;;20.05;80.52
76994;BME280;66749;47.406;18.822;2023-07-16T02:25:24;100141.81;;;20.03;80.35
76994;BME280;66749;47.406;18.822;2023-07-16T02:25:57;100149.44;;;20.06;80.80
76994;BME280;66749;47.406;18.822;2023-07-16T02:26:28;100145.78;;;20.07;80.05
76994;BME280;66749;47.406;18.822;2023-07-16T02:27:01;100149.94;;;20.09;80.09
76994;BME280;66749;47.406;18.822;2023-07-16T02:27:33;100148.81;;;20.12;80.51
76994;BME280;66749;47.406;18.822;2023-07-16T02:28:05;100157.22;;;20.07;80.38
76994;BME280;66749;47.406;18.822;2023-07-16T02:28:37;100155.72;;;20.05;80.43
76994;BME280;66749;47.406;18.822;2023-07-16T02:29:08;100145.13;;;20.05;80.55
76994;BME280;66749;47.406;18.822;2023-07-16T02:29:40;100147.47;;;20.08;80.80
76994;BME280;66749;47.406;18.822;2023-07-16T02:30:14;100149.81;;;20.11;80.53
76994;BME280;66749;47.406;18.822;2023-07-16T02:30:48;100151.63;;;20.10;80.38
76994;BME280;66749;47.406;18.822;2023-07-16T02:31:20;100149.66;;;20.12;80.00
76994;BME280;66749;47.406;18.822;2023-07-16T02:31:52;100146.84;;;20.14;79.73
76994;BME280;66749;47.406;18.822;2023-07-16T02:32:24;100149.50;;;20.14;80.04
76994;BME280;66749;47.406;18.822;2023-07-16T02:32:56;100149.66;;;20.12;80.81
76994;BME280;66749;47.406;18.822;2023-07-16T02:33:28;100146.47;;;20.09;79.98
76994;BME280;66749;47.406;18.822;2023-07-16T02:34:00;100152.59;;;20.09;80.42
76994;BME280;66749;47.406;18.822;2023-07-16T02:34:32;100148.13;;;20.10;80.78
76994;BME280;66749;47.406;18.822;2023-07-16T02:35:04;100146.34;;;20.10;80.09
76994;BME280;66749;47.406;18.822;2023-07-16T02:35:36;100151.63;;;20.10;80.27
76994;BME280;66749;47.406;18.822;2023-07-16T02:36:08;100142.16;;;20.08;80.04
76994;BME280;66749;47.406;18.822;2023-07-16T02:36:40;100143.00;;;20.08;80.00
76994;BME280;66749;47.406;18.822;2023-07-16T02:37:12;100144.13;;;20.06;80.73
76994;BME280;66749;47.406;18.822;2023-07-16T02:37:44;100149.44;;;20.06;80.16
76994;BME280;66749;47.406;18.822;2023-07-16T02:38:15;100146.13;;;20.04;80.66
76994;BME280;66749;47.406;18.822;2023-07-16T02:38:47;100154.19;;;20.02;80.45
76994;BME280;66749;47.406;18.822;2023-07-16T02:39:19;100155.06;;;20.03;80.18
76994;BME280;66749;47.406;18.822;2023-07-16T02:39:51;100150.88;;;20.00;80.65
76994;BME280;66749;47.406;18.822;2023-07-16T02:40:23;100159.13;;;19.97;80.36
76994;BME280;66749;47.406;18.822;2023-07-16T02:40:55;100158.16;;;19.98;80.42
76994;BME280;66749;47.406;18.822;2023-07-16T02:41:26;100157.31;;;19.98;80.85
76994;BME280;66749;47.406;18.822;2023-07-16T02:41:58;100158.47;;;19.95;80.54
76994;BME280;66749;47.406;18.822;2023-07-16T02:42:30;100159.41;;;19.94;80.53
76994;BME280;66749;47.406;18.822;2023-07-16T02:43:02;100154.28;;;19.92;80.56
76994;BME280;66749;47.406;18.822;2023-07-16T02:43:34;100159.41;;;19.94;80.96
76994;BME280;66749;47.406;18.822;2023-07-16T02:44:06;100159.56;;;19.92;81.06
76994;BME280;66749;47.406;18.822;2023-07-16T02:44:38;100155.44;;;19.90;81.48
76994;BME280;66749;47.406;18.822;2023-07-16T02:45:13;100158.06;;;19.90;80.73
76994;BME280;66749;47.406;18.822;2023-07-16T02:45:45;100153.44;;;19.92;81.38
76994;BME280;66749;47.406;18.822;2023-07-16T02:46:17;100158.06;;;19.90;81.07
76994;BME280;66749;47.406;18.822;2023-07-16T02:46:49;100158.22;;;19.88;81.26
76994;BME280;66749;47.406;18.822;2023-07-16T02:47:21;100165.19;;;19.89;80.72
76994;BME280;66749;47.406;18.822;2023-07-16T02:47:53;100159.75;;;19.91;80.87
76994;BME280;66749;47.406;18.822;2023-07-16T02:48:25;100161.56;;;19.90;80.69
76994;BME280;66749;47.406;18.822;2023-07-16T02:48:57;100166.19;;;19.88;80.99
76994;BME280;66749;47.406;18.822;2023-07-16T02:49:28;100160.88;;;19.88;80.91
76994;BME280;66749;47.406;18.822;2023-07-16T02:50:00;100159.75;;;19.91;80.77
76994;BME280;66749;47.406;18.822;2023-07-16T02:50:38;100162.38;;;19.91;81.09
76994;BME280;66749;47.406;18.822;2023-07-16T02:51:10;100161.56;;;19.90;80.53
76994;BME280;66749;47.406;18.822;2023-07-16T02:51:42;100159.91;;;19.89;80.68
76994;BME280;66749;47.406;18.822;2023-07-16T02:52:14;100167.13;;;19.87;81.26
76994;BME280;66749;47.406;18.822;2023-07-16T02:52:46;100165.19;;;19.89;80.63
76994;BME280;66749;47.406;18.822;2023-07-16T02:53:18;100163.22;;;19.91;81.03
76994;BME280;66749;47.406;18.822;2023-07-16T02:53:49;100165.47;;;19.86;81.32
76994;BME280;66749;47.406;18.822;2023-07-16T02:54:21;100161.84;;;19.87;80.89
76994;BME280;66749;47.406;18.822;2023-07-16T02:54:53;100165.47;;;19.86;81.58